sensor_id;sensor_type;location;lat;lon;timestamp;pressure;altitude;pressure_sealevel;temperature;humidity
55068;BME280;40965;52.368;9.712;2023-06-04T00:00:53;101470.69;;;11.90;44.70
55068;BME280;40965;52.368;9.712;2023-06-04T00:03:25;101461.97;;;11.85;44.80
55068;BME280;40965;52.368;9.712;2023-06-04T00:05:52;101461.97;;;11.82;44.92
55068;BME280;40965;52.368;9.712;2023-06-04T00:08:18;101460.22;;;11.73;45.41
55068;BME280;40965;52.368;9.712;2023-06-04T00:10:44;101455.00;;;11.68;45.60
55068;BME280;40965;52.368;9.712;2023-06-04T00:13:11;101458.50;;;11.66;45.65
55068;BME280;40965;52.368;9.712;2023-06-04T00:15:37;101461.97;;;11.66;45.68
55068;BME280;40965;52.368;9.712;2023-06-04T00:18:04;101455.88;;;11.64;45.76
55068;BME280;40965;52.368;9.712;2023-06-04T00:20:30;101457.63;;;11.61;45.70
55068;BME280;40965;52.368;9.712;2023-06-04T00:22:57;101459.38;;;11.57;45.72
55068;BME280;40965;52.368;9.712;2023-06-04T00:25:23;101455.00;;;11.57;45.91
55068;BME280;40965;52.368;9.712;2023-06-04T00:27:51;101451.50;;;11.57;46.00
55068;BME280;40965;52.368;9.712;2023-06-04T00:30:18;101446.28;;;11.54;45.80
55068;BME280;40965;52.368;9.712;2023-06-04T00:32:44;101449.75;;;11.48;47.10
55068;BME280;40965;52.368;9.712;2023-06-04T00:35:12;101449.75;;;11.48;46.76
55068;BME280;40965;52.368;9.712;2023-06-04T00:37:38;101455.88;;;11.49;46.88
55068;BME280;40965;52.368;9.712;2023-06-04T00:40:05;101455.00;;;11.47;46.65
55068;BME280;40965;52.368;9.712;2023-06-04T00:42:32;101448.00;;;11.44;46.63
55068;BME280;40965;52.368;9.712;2023-06-04T00:44:59;101457.59;;;11.40;47.06
55068;BME280;40965;52.368;9.712;2023-06-04T00:47:26;101455.00;;;11.36;46.82
55068;BME280;40965;52.368;9.712;2023-06-04T00:49:56;101448.91;;;11.37;47.30
55068;BME280;40965;52.368;9.712;2023-06-04T00:52:24;101451.50;;;11.31;47.55
55068;BME280;40965;52.368;9.712;2023-06-04T00:54:51;101451.50;;;11.29;47.43
55068;BME280;40965;52.368;9.712;2023-06-04T00:57:21;101455.88;;;11.25;47.75
55068;BME280;40965;52.368;9.712;2023-06-04T00:59:48;101451.50;;;11.23;47.50
55068;BME280;40965;52.368;9.712;2023-06-04T01:02:21;101461.09;;;11.16;47.65
55068;BME280;40965;52.368;9.712;2023-06-04T01:05:14;101457.59;;;11.13;48.25
55068;BME280;40965;52.368;9.712;2023-06-04T01:07:46;101457.59;;;11.09;48.22
55068;BME280;40965;52.368;9.712;2023-06-04T01:10:14;101446.22;;;11.07;48.23
55068;BME280;40965;52.368;9.712;2023-06-04T01:12:42;101450.59;;;11.02;48.20
55068;BME280;40965;52.368;9.712;2023-06-04T01:15:10;101460.16;;;10.99;48.75
55068;BME280;40965;52.368;9.712;2023-06-04T01:17:40;101453.19;;;10.96;48.60
55068;BME280;40965;52.368;9.712;2023-06-04T01:20:25;101444.47;;;10.94;49.40
55068;BME280;40965;52.368;9.712;2023-06-04T01:25:42;101448.81;;;10.89;49.05
55068;BME280;40965;52.368;9.712;2023-06-04T01:28:12;101447.91;;;10.85;49.41
55068;BME280;40965;52.368;9.712;2023-06-04T01:30:45;101447.91;;;10.85;49.83
55068;BME280;40965;52.368;9.712;2023-06-04T01:33:14;101440.94;;;10.86;49.55
55068;BME280;40965;52.368;9.712;2023-06-04T01:35:42;101438.31;;;10.83;49.64
55068;BME280;40965;52.368;9.712;2023-06-04T01:38:09;101439.19;;;10.80;49.51
55068;BME280;40965;52.368;9.712;2023-06-04T01:40:36;101442.66;;;10.76;50.00
55068;BME280;40965;52.368;9.712;2023-06-04T01:43:03;101443.53;;;10.75;49.89
55068;BME280;40965;52.368;9.712;2023-06-04T01:45:30;101441.78;;;10.72;50.26
55068;BME280;40965;52.368;9.712;2023-06-04T01:47:56;101445.25;;;10.70;50.35
55068;BME280;40965;52.368;9.712;2023-06-04T01:50:23;101440.88;;;10.63;50.85
55068;BME280;40965;52.368;9.712;2023-06-04T01:52:49;101440.84;;;10.56;51.12
55068;BME280;40965;52.368;9.712;2023-06-04T01:55:16;101442.53;;;10.47;51.60
55068;BME280;40965;52.368;9.712;2023-06-04T01:57:44;101443.41;;;10.39;52.07
55068;BME280;40965;52.368;9.712;2023-06-04T02:00:12;101442.44;;;10.30;53.06
55068;BME280;40965;52.368;9.712;2023-06-04T02:02:40;101443.28;;;10.27;53.51
55068;BME280;40965;52.368;9.712;2023-06-04T02:05:08;101445.91;;;10.22;54.27
55068;BME280;40965;52.368;9.712;2023-06-04T02:07:36;101452.00;;;10.20;54.89
55068;BME280;40965;52.368;9.712;2023-06-04T02:10:07;101446.72;;;10.14;54.40
55068;BME280;40965;52.368;9.712;2023-06-04T02:12:36;101445.81;;;10.07;55.01
55068;BME280;40965;52.368;9.712;2023-06-04T02:15:04;101451.91;;;10.01;55.31
55068;BME280;40965;52.368;9.712;2023-06-04T02:17:31;101443.09;;;9.94;56.13
55068;BME280;40965;52.368;9.712;2023-06-04T02:20:03;101444.81;;;9.86;56.68
55068;BME280;40965;52.368;9.712;2023-06-04T02:22:34;101442.16;;;9.80;56.97
55068;BME280;40965;52.368;9.712;2023-06-04T02:25:01;101449.09;;;9.75;57.24
55068;BME280;40965;52.368;9.712;2023-06-04T02:27:27;101442.94;;;9.70;57.32
55068;BME280;40965;52.368;9.712;2023-06-04T02:29:54;101442.00;;;9.62;58.25
55068;BME280;40965;52.368;9.712;2023-06-04T02:32:20;101438.50;;;9.56;58.76
55068;BME280;40965;52.368;9.712;2023-06-04T02:34:47;101441.94;;;9.51;58.81
55068;BME280;40965;52.368;9.712;2023-06-04T02:37:14;101446.25;;;9.46;59.42
55068;BME280;40965;52.368;9.712;2023-06-04T02:39:40;101447.03;;;9.37;59.64
55068;BME280;40965;52.368;9.712;2023-06-04T02:42:07;101453.13;;;9.36;59.83
55068;BME280;40965;52.368;9.712;2023-06-04T02:44:33;101439.19;;;9.34;60.76
55068;BME280;40965;52.368;9.712;2023-06-04T02:47:00;101455.72;;;9.30;60.80
55068;BME280;40965;52.368;9.712;2023-06-04T02:49:26;101455.72;;;9.30;61.59
55068;BME280;40965;52.368;9.712;2023-06-04T02:51:53;101452.19;;;9.26;61.61
55068;BME280;40965;52.368;9.712;2023-06-04T02:54:19;101464.31;;;9.19;61.99
55068;BME280;40965;52.368;9.712;2023-06-04T02:56:46;101466.88;;;9.15;61.65
55068;BME280;40965;52.368;9.712;2023-06-04T02:59:14;101460.78;;;9.13;62.16
55068;BME280;40965;52.368;9.712;2023-06-04T03:01:41;101460.72;;;9.09;62.63
55068;BME280;40965;52.368;9.712;2023-06-04T03:04:07;101463.31;;;9.08;62.38
55068;BME280;40965;52.368;9.712;2023-06-04T03:06:41;101459.81;;;9.06;62.71
55068;BME280;40965;52.368;9.712;2023-06-04T03:09:10;101471.16;;;9.06;62.84
55068;BME280;40965;52.368;9.712;2023-06-04T03:11:37;101458.09;;;9.08;63.39
55068;BME280;40965;52.368;9.712;2023-06-04T03:14:03;101462.41;;;9.03;63.28
55068;BME280;40965;52.368;9.712;2023-06-04T03:16:30;101459.75;;;9.00;63.62
55068;BME280;40965;52.368;9.712;2023-06-04T03:18:57;101464.06;;;8.96;64.54
55068;BME280;40965;52.368;9.712;2023-06-04T03:21:23;101461.47;;;8.96;64.07
55068;BME280;40965;52.368;9.712;2023-06-04T03:23:50;101469.28;;;8.93;64.24
55068;BME280;40965;52.368;9.712;2023-06-04T03:26:17;101464.91;;;8.92;65.19
55068;BME280;40965;52.368;9.712;2023-06-04T03:28:46;101471.00;;;8.94;65.27
55068;BME280;40965;52.368;9.712;2023-06-04T03:31:12;101472.75;;;8.93;65.71
55068;BME280;40965;52.368;9.712;2023-06-04T03:33:41;101465.78;;;8.94;65.85
55068;BME280;40965;52.368;9.712;2023-06-04T03:36:07;101464.94;;;8.95;66.62
55068;BME280;40965;52.368;9.712;2023-06-04T03:38:36;101464.91;;;8.92;66.43
55068;BME280;40965;52.368;9.712;2023-06-04T03:41:02;101470.13;;;8.90;66.73
55068;BME280;40965;52.368;9.712;2023-06-04T03:43:29;101470.06;;;8.89;66.02
55068;BME280;40965;52.368;9.712;2023-06-04T03:45:55;101459.63;;;8.87;66.46
55068;BME280;40965;52.368;9.712;2023-06-04T03:48:22;101467.50;;;8.92;66.67
55068;BME280;40965;52.368;9.712;2023-06-04T03:50:48;101467.50;;;8.92;66.05
55068;BME280;40965;52.368;9.712;2023-06-04T03:53:15;101467.53;;;8.93;66.29
55068;BME280;40965;52.368;9.712;2023-06-04T03:55:42;101467.53;;;8.93;66.19
55068;BME280;40965;52.368;9.712;2023-06-04T03:58:08;101458.00;;;8.97;66.29
55068;BME280;40965;52.368;9.712;2023-06-04T04:00:36;101464.16;;;9.04;65.98
55068;BME280;40965;52.368;9.712;2023-06-04T04:03:02;101461.56;;;9.08;66.03
55068;BME280;40965;52.368;9.712;2023-06-04T04:05:29;101466.00;;;9.13;65.61
55068;BME280;40965;52.368;9.712;2023-06-04T04:07:55;101462.53;;;9.17;65.33
55068;BME280;40965;52.368;9.712;2023-06-04T04:10:22;101455.63;;;9.22;64.88
55068;BME280;40965;52.368;9.712;2023-06-04T04:12:48;101453.88;;;9.24;65.27
55068;BME280;40965;52.368;9.712;2023-06-04T04:15:16;101466.16;;;9.30;65.20
55068;BME280;40965;52.368;9.712;2023-06-04T04:17:42;101457.50;;;9.37;64.83
55068;BME280;40965;52.368;9.712;2023-06-04T04:20:09;101464.53;;;9.44;65.25
55068;BME280;40965;52.368;9.712;2023-06-04T04:22:40;101471.56;;;9.51;64.51
55068;BME280;40965;52.368;9.712;2023-06-04T04:25:08;101458.53;;;9.56;64.19
55068;BME280;40965;52.368;9.712;2023-06-04T04:27:35;101467.31;;;9.64;64.37
55068;BME280;40965;52.368;9.712;2023-06-04T04:30:05;101471.69;;;9.70;64.26
55068;BME280;40965;52.368;9.712;2023-06-04T04:32:32;101466.53;;;9.76;64.02
55068;BME280;40965;52.368;9.712;2023-06-04T04:34:59;101470.06;;;9.81;64.25
55068;BME280;40965;52.368;9.712;2023-06-04T04:37:25;101470.09;;;9.86;63.77
55068;BME280;40965;52.368;9.712;2023-06-04T04:39:52;101470.16;;;9.93;63.48
55068;BME280;40965;52.368;9.712;2023-06-04T04:42:19;101469.31;;;9.96;63.59
55068;BME280;40965;52.368;9.712;2023-06-04T04:44:45;101471.94;;;10.01;63.46
55068;BME280;40965;52.368;9.712;2023-06-04T04:47:15;101471.97;;;10.04;63.45
55068;BME280;40965;52.368;9.712;2023-06-04T04:49:41;101468.50;;;10.06;63.71
55068;BME280;40965;52.368;9.712;2023-06-04T04:52:08;101467.66;;;10.12;63.77
55068;BME280;40965;52.368;9.712;2023-06-04T04:54:35;101463.31;;;10.16;63.99
55068;BME280;40965;52.368;9.712;2023-06-04T04:57:01;101470.31;;;10.20;63.75
55068;BME280;40965;52.368;9.712;2023-06-04T04:59:27;101479.91;;;10.21;63.66
55068;BME280;40965;52.368;9.712;2023-06-04T05:01:54;101472.94;;;10.24;63.26
55068;BME280;40965;52.368;9.712;2023-06-04T05:04:20;101476.44;;;10.28;63.15
55068;BME280;40965;52.368;9.712;2023-06-04T05:06:47;101475.59;;;10.34;62.97
55068;BME280;40965;52.368;9.712;2023-06-04T05:09:13;101473.06;;;10.37;63.43
55068;BME280;40965;52.368;9.712;2023-06-04T05:11:40;101470.44;;;10.41;63.72
55068;BME280;40965;52.368;9.712;2023-06-04T05:14:07;101478.31;;;10.48;63.23
55068;BME280;40965;52.368;9.712;2023-06-04T05:16:33;101473.13;;;10.51;63.22
55068;BME280;40965;52.368;9.712;2023-06-04T05:19:01;101480.97;;;10.55;62.98
55068;BME280;40965;52.368;9.712;2023-06-04T05:21:28;101476.66;;;10.59;63.11
55068;BME280;40965;52.368;9.712;2023-06-04T05:23:55;101478.41;;;10.65;62.93
55068;BME280;40965;52.368;9.712;2023-06-04T05:26:21;101484.53;;;10.70;62.22
55068;BME280;40965;52.368;9.712;2023-06-04T05:28:49;101486.31;;;10.75;62.36
55068;BME280;40965;52.368;9.712;2023-06-04T05:31:15;101480.22;;;10.78;62.23
55068;BME280;40965;52.368;9.712;2023-06-04T05:33:43;101481.94;;;10.81;62.92
55068;BME280;40965;52.368;9.712;2023-06-04T05:36:10;101485.47;;;10.81;62.13
55068;BME280;40965;52.368;9.712;2023-06-04T05:38:37;101486.34;;;10.85;61.85
55068;BME280;40965;52.368;9.712;2023-06-04T05:41:03;101488.09;;;10.89;61.37
55068;BME280;40965;52.368;9.712;2023-06-04T05:43:30;101492.47;;;10.93;60.91
55068;BME280;40965;52.368;9.712;2023-06-04T05:45:57;101487.25;;;10.98;60.89
55068;BME280;40965;52.368;9.712;2023-06-04T05:48:23;101486.41;;;11.00;60.53
55068;BME280;40965;52.368;9.712;2023-06-04T05:50:50;101489.03;;;11.02;60.54
55068;BME280;40965;52.368;9.712;2023-06-04T05:53:16;101494.28;;;11.09;60.20
55068;BME280;40965;52.368;9.712;2023-06-04T05:55:43;101490.78;;;11.18;60.03
55068;BME280;40965;52.368;9.712;2023-06-04T05:58:09;101489.94;;;11.24;59.60
55068;BME280;40965;52.368;9.712;2023-06-04T06:00:36;101489.91;;;11.30;59.00
55068;BME280;40965;52.368;9.712;2023-06-04T06:03:02;101492.59;;;11.39;58.42
55068;BME280;40965;52.368;9.712;2023-06-04T06:05:31;101489.94;;;11.46;57.90
55068;BME280;40965;52.368;9.712;2023-06-04T06:07:58;101487.34;;;11.50;57.92
55068;BME280;40965;52.368;9.712;2023-06-04T06:10:25;101493.44;;;11.60;57.45
55068;BME280;40965;52.368;9.712;2023-06-04T06:12:51;101496.09;;;11.69;56.88
55068;BME280;40965;52.368;9.712;2023-06-04T06:15:19;101502.19;;;11.79;56.07
55068;BME280;40965;52.368;9.712;2023-06-04T06:17:45;101501.31;;;11.85;55.54
55068;BME280;40965;52.368;9.712;2023-06-04T06:20:12;101496.06;;;11.94;54.81
55068;BME280;40965;52.368;9.712;2023-06-04T06:22:42;101503.09;;;12.03;54.37
55068;BME280;40965;52.368;9.712;2023-06-04T06:25:09;101503.97;;;12.13;52.97
55068;BME280;40965;52.368;9.712;2023-06-04T06:27:38;101498.69;;;12.19;52.84
55068;BME280;40965;52.368;9.712;2023-06-04T06:30:07;101496.91;;;12.24;52.63
55068;BME280;40965;52.368;9.712;2023-06-04T06:32:34;101496.91;;;12.29;52.61
55068;BME280;40965;52.368;9.712;2023-06-04T06:35:01;101503.91;;;12.37;51.50
55068;BME280;40965;52.368;9.712;2023-06-04T06:37:28;101508.25;;;12.48;51.20
55068;BME280;40965;52.368;9.712;2023-06-04T06:39:54;101505.56;;;12.60;50.39
55068;BME280;40965;52.368;9.712;2023-06-04T06:42:22;101506.44;;;12.70;50.54
55068;BME280;40965;52.368;9.712;2023-06-04T06:44:48;101504.66;;;12.75;50.24
55068;BME280;40965;52.368;9.712;2023-06-04T06:47:15;101502.84;;;12.85;50.29
55068;BME280;40965;52.368;9.712;2023-06-04T06:49:42;101506.31;;;12.90;50.02
55068;BME280;40965;52.368;9.712;2023-06-04T06:52:09;101508.03;;;12.99;49.48
55068;BME280;40965;52.368;9.712;2023-06-04T06:54:36;101509.75;;;13.09;49.42
55068;BME280;40965;52.368;9.712;2023-06-04T06:57:02;101509.66;;;13.20;48.35
55068;BME280;40965;52.368;9.712;2023-06-04T06:59:34;101508.75;;;13.29;48.00
55068;BME280;40965;52.368;9.712;2023-06-04T07:02:00;101508.72;;;13.38;47.63
55068;BME280;40965;52.368;9.712;2023-06-04T07:04:27;101516.50;;;13.50;47.10
55068;BME280;40965;52.368;9.712;2023-06-04T07:06:53;101511.19;;;13.58;47.14
55068;BME280;40965;52.368;9.712;2023-06-04T07:09:20;101517.25;;;13.69;46.54
55068;BME280;40965;52.368;9.712;2023-06-04T07:11:46;101514.50;;;13.83;45.92
55068;BME280;40965;52.368;9.712;2023-06-04T07:14:12;101516.13;;;13.98;46.53
55068;BME280;40965;52.368;9.712;2023-06-04T07:16:41;101512.41;;;14.18;46.19
55068;BME280;40965;52.368;9.712;2023-06-04T07:19:07;101510.31;;;14.49;45.10
55068;BME280;40965;52.368;9.712;2023-06-04T07:21:34;101514.09;;;15.01;44.22
55068;BME280;40965;52.368;9.712;2023-06-04T07:24:01;101503.56;;;15.61;42.56
55068;BME280;40965;52.368;9.712;2023-06-04T07:26:27;101520.00;;;16.30;42.02
55068;BME280;40965;52.368;9.712;2023-06-04T07:28:56;101508.56;;;17.14;40.89
55068;BME280;40965;52.368;9.712;2023-06-04T07:31:22;101504.06;;;17.91;39.32
55068;BME280;40965;52.368;9.712;2023-06-04T07:33:49;101502.69;;;18.44;37.90
55068;BME280;40965;52.368;9.712;2023-06-04T07:36:16;101499.50;;;18.94;36.70
55068;BME280;40965;52.368;9.712;2023-06-04T07:38:43;101499.84;;;19.66;36.78
55068;BME280;40965;52.368;9.712;2023-06-04T07:41:09;101493.72;;;20.42;35.10
55068;BME280;40965;52.368;9.712;2023-06-04T07:43:36;101498.50;;;20.81;33.76
55068;BME280;40965;52.368;9.712;2023-06-04T07:46:05;101496.72;;;21.04;31.90
55068;BME280;40965;52.368;9.712;2023-06-04T07:48:32;101504.78;;;21.24;33.23
55068;BME280;40965;52.368;9.712;2023-06-04T07:50:59;101499.38;;;21.70;32.25
55068;BME280;40965;52.368;9.712;2023-06-04T07:53:27;101502.09;;;22.30;30.64
55068;BME280;40965;52.368;9.712;2023-06-04T07:55:54;101508.31;;;22.52;30.55
55068;BME280;40965;52.368;9.712;2023-06-04T07:58:21;101512.22;;;22.63;29.62
55068;BME280;40965;52.368;9.712;2023-06-04T08:00:47;101505.22;;;22.99;30.02
55068;BME280;40965;52.368;9.712;2023-06-04T08:03:15;101505.53;;;23.49;29.53
55068;BME280;40965;52.368;9.712;2023-06-04T08:05:42;101500.38;;;23.81;28.59
55068;BME280;40965;52.368;9.712;2023-06-04T08:08:08;101504.09;;;23.95;27.42
55068;BME280;40965;52.368;9.712;2023-06-04T08:10:35;101505.66;;;24.17;27.24
55068;BME280;40965;52.368;9.712;2023-06-04T08:13:02;101507.13;;;24.56;27.39
55068;BME280;40965;52.368;9.712;2023-06-04T08:15:28;101504.25;;;25.09;26.17
55068;BME280;40965;52.368;9.712;2023-06-04T08:17:55;101501.31;;;24.98;26.20
55068;BME280;40965;52.368;9.712;2023-06-04T08:20:21;101493.34;;;25.44;26.07
55068;BME280;40965;52.368;9.712;2023-06-04T08:22:48;101504.56;;;26.12;25.99
55068;BME280;40965;52.368;9.712;2023-06-04T08:25:15;101510.22;;;26.65;25.30
55068;BME280;40965;52.368;9.712;2023-06-04T08:27:42;101506.50;;;27.23;24.77
55068;BME280;40965;52.368;9.712;2023-06-04T08:30:09;101504.81;;;27.08;23.59
55068;BME280;40965;52.368;9.712;2023-06-04T08:32:36;101504.59;;;27.11;23.86
55068;BME280;40965;52.368;9.712;2023-06-04T08:35:02;101503.28;;;27.59;23.31
55068;BME280;40965;52.368;9.712;2023-06-04T08:37:30;101499.50;;;27.21;22.64
55068;BME280;40965;52.368;9.712;2023-06-04T08:39:56;101502.34;;;27.72;22.67
55068;BME280;40965;52.368;9.712;2023-06-04T08:42:29;101504.72;;;28.17;21.77
55068;BME280;40965;52.368;9.712;2023-06-04T08:44:57;101502.34;;;27.72;21.99
55068;BME280;40965;52.368;9.712;2023-06-04T08:47:25;101504.78;;;28.03;21.67
55068;BME280;40965;52.368;9.712;2023-06-04T08:49:52;101505.38;;;27.81;22.45
55068;BME280;40965;52.368;9.712;2023-06-04T08:52:21;101504.09;;;28.64;21.58
55068;BME280;40965;52.368;9.712;2023-06-04T08:54:50;101504.50;;;29.33;21.05
55068;BME280;40965;52.368;9.712;2023-06-04T08:57:19;101507.81;;;29.24;20.44
55068;BME280;40965;52.368;9.712;2023-06-04T08:59:46;101509.94;;;28.58;20.41
55068;BME280;40965;52.368;9.712;2023-06-04T09:02:17;101512.56;;;28.08;20.57
55068;BME280;40965;52.368;9.712;2023-06-04T09:04:44;101511.25;;;28.26;20.83
55068;BME280;40965;52.368;9.712;2023-06-04T09:07:12;101510.25;;;28.79;20.31
55068;BME280;40965;52.368;9.712;2023-06-04T09:09:40;101515.97;;;28.74;20.08
55068;BME280;40965;52.368;9.712;2023-06-04T09:12:10;101508.00;;;28.73;19.71
55068;BME280;40965;52.368;9.712;2023-06-04T09:14:37;101511.31;;;29.13;20.07
55068;BME280;40965;52.368;9.712;2023-06-04T09:17:03;101510.94;;;29.91;19.29
55068;BME280;40965;52.368;9.712;2023-06-04T09:19:30;101508.59;;;30.67;18.03
55068;BME280;40965;52.368;9.712;2023-06-04T09:21:58;101505.22;;;30.18;18.14
55068;BME280;40965;52.368;9.712;2023-06-04T09:24:47;101498.63;;;30.79;17.54
55068;BME280;40965;52.368;9.712;2023-06-04T09:27:20;101508.34;;;31.58;17.36
55068;BME280;40965;52.368;9.712;2023-06-04T09:29:57;101503.13;;;31.77;17.08
55068;BME280;40965;52.368;9.712;2023-06-04T09:32:26;101504.34;;;31.73;17.21
55068;BME280;40965;52.368;9.712;2023-06-04T09:34:55;101499.19;;;32.33;16.30
55068;BME280;40965;52.368;9.712;2023-06-04T09:37:22;101500.69;;;33.18;16.54
55068;BME280;40965;52.368;9.712;2023-06-04T09:39:56;101507.09;;;32.97;15.99
55068;BME280;40965;52.368;9.712;2023-06-04T09:42:23;101510.50;;;32.48;16.38
55068;BME280;40965;52.368;9.712;2023-06-04T09:44:50;101506.84;;;32.59;16.43
55068;BME280;40965;52.368;9.712;2023-06-04T09:47:16;101506.25;;;33.06;16.37
55068;BME280;40965;52.368;9.712;2023-06-04T09:49:44;101509.44;;;33.80;15.66
55068;BME280;40965;52.368;9.712;2023-06-04T09:52:11;101501.88;;;33.35;16.23
55068;BME280;40965;52.368;9.712;2023-06-04T09:54:40;101499.84;;;33.66;15.51
55068;BME280;40965;52.368;9.712;2023-06-04T09:57:18;101506.31;;;34.22;14.79
55068;BME280;40965;52.368;9.712;2023-06-04T09:59:46;101501.13;;;34.67;15.17
55068;BME280;40965;52.368;9.712;2023-06-04T10:02:20;101501.66;;;34.80;14.82
55068;BME280;40965;52.368;9.712;2023-06-04T10:04:54;101499.69;;;34.72;14.44
55068;BME280;40965;52.368;9.712;2023-06-04T10:07:24;101498.41;;;34.49;14.93
55068;BME280;40965;52.368;9.712;2023-06-04T10:09:55;101501.94;;;34.77;14.57
55068;BME280;40965;52.368;9.712;2023-06-04T10:12:25;101492.63;;;34.14;15.15
55068;BME280;40965;52.368;9.712;2023-06-04T10:14:58;101493.81;;;34.49;14.99
55068;BME280;40965;52.368;9.712;2023-06-04T10:17:29;101498.03;;;34.61;14.73
55068;BME280;40965;52.368;9.712;2023-06-04T10:19:56;101498.09;;;34.04;14.67
55068;BME280;40965;52.368;9.712;2023-06-04T10:22:24;101492.72;;;34.42;15.05
55068;BME280;40965;52.368;9.712;2023-06-04T10:24:51;101485.69;;;35.31;14.55
55068;BME280;40965;52.368;9.712;2023-06-04T10:27:17;101488.47;;;35.21;14.08
55068;BME280;40965;52.368;9.712;2023-06-04T10:29:45;101492.13;;;35.30;14.38
55068;BME280;40965;52.368;9.712;2023-06-04T10:32:12;101480.56;;;34.64;14.73
55068;BME280;40965;52.368;9.712;2023-06-04T10:34:39;101482.53;;;35.18;14.40
55068;BME280;40965;52.368;9.712;2023-06-04T10:37:06;101481.72;;;34.61;13.70
55068;BME280;40965;52.368;9.712;2023-06-04T10:39:32;101477.41;;;34.31;14.25
55068;BME280;40965;52.368;9.712;2023-06-04T10:42:02;101480.97;;;35.15;13.71
55068;BME280;40965;52.368;9.712;2023-06-04T10:44:31;101480.19;;;35.85;13.63
55068;BME280;40965;52.368;9.712;2023-06-04T10:46:58;101478.53;;;36.19;13.17
55068;BME280;40965;52.368;9.712;2023-06-04T10:49:29;101493.47;;;35.08;13.23
55068;BME280;40965;52.368;9.712;2023-06-04T10:51:56;101489.13;;;34.97;13.54
55068;BME280;40965;52.368;9.712;2023-06-04T10:54:28;101489.16;;;34.87;13.61
55068;BME280;40965;52.368;9.712;2023-06-04T10:56:55;101491.13;;;35.67;13.28
55068;BME280;40965;52.368;9.712;2023-06-04T10:59:21;101485.84;;;36.53;12.86
55068;BME280;40965;52.368;9.712;2023-06-04T11:01:49;101484.97;;;36.95;12.41
55068;BME280;40965;52.368;9.712;2023-06-04T11:04:23;101483.84;;;37.55;11.74
55068;BME280;40965;52.368;9.712;2023-06-04T11:07:07;101478.56;;;37.37;11.33
55068;BME280;40965;52.368;9.712;2023-06-04T11:09:35;101483.44;;;37.01;12.69
55068;BME280;40965;52.368;9.712;2023-06-04T11:12:05;101474.28;;;36.59;12.34
55068;BME280;40965;52.368;9.712;2023-06-04T11:14:32;101487.91;;;36.51;12.53
55068;BME280;40965;52.368;9.712;2023-06-04T11:17:11;101481.03;;;36.89;11.77
55068;BME280;40965;52.368;9.712;2023-06-04T11:19:39;101471.59;;;36.33;11.87
55068;BME280;40965;52.368;9.712;2023-06-04T11:22:05;101471.94;;;35.95;12.30
55068;BME280;40965;52.368;9.712;2023-06-04T11:24:32;101478.78;;;35.81;12.39
55068;BME280;40965;52.368;9.712;2023-06-04T11:26:59;101479.91;;;34.80;12.71
55068;BME280;40965;52.368;9.712;2023-06-04T11:29:27;101472.34;;;35.38;13.04
55068;BME280;40965;52.368;9.712;2023-06-04T11:31:54;101466.84;;;36.35;12.37
55068;BME280;40965;52.368;9.712;2023-06-04T11:34:29;101465.13;;;35.73;12.38
55068;BME280;40965;52.368;9.712;2023-06-04T11:37:07;101465.00;;;35.83;12.39
55068;BME280;40965;52.368;9.712;2023-06-04T11:39:35;101465.69;;;35.58;12.18
55068;BME280;40965;52.368;9.712;2023-06-04T11:42:07;101466.63;;;35.31;12.53
55068;BME280;40965;52.368;9.712;2023-06-04T11:44:34;101456.41;;;34.79;12.75
55068;BME280;40965;52.368;9.712;2023-06-04T11:47:00;101451.66;;;35.45;12.79
55068;BME280;40965;52.368;9.712;2023-06-04T11:49:27;101447.63;;;36.87;11.87
55068;BME280;40965;52.368;9.712;2023-06-04T11:51:54;101445.91;;;37.77;11.38
55068;BME280;40965;52.368;9.712;2023-06-04T11:54:21;101446.19;;;36.75;11.61
55068;BME280;40965;52.368;9.712;2023-06-04T11:56:49;101449.00;;;36.91;11.79
55068;BME280;40965;52.368;9.712;2023-06-04T11:59:17;101452.31;;;36.26;12.27
55068;BME280;40965;52.368;9.712;2023-06-04T12:01:46;101457.22;;;36.14;12.48
55068;BME280;40965;52.368;9.712;2023-06-04T12:04:18;101447.47;;;36.46;11.97
55068;BME280;40965;52.368;9.712;2023-06-04T12:06:55;101458.72;;;36.43;12.02
55068;BME280;40965;52.368;9.712;2023-06-04T12:09:27;101443.03;;;37.04;11.65
55068;BME280;40965;52.368;9.712;2023-06-04T12:12:09;101443.63;;;38.05;11.68
55068;BME280;40965;52.368;9.712;2023-06-04T12:14:38;101448.94;;;38.47;10.30
55068;BME280;40965;52.368;9.712;2023-06-04T12:17:08;101452.44;;;37.51;11.46
55068;BME280;40965;52.368;9.712;2023-06-04T12:19:46;101446.44;;;38.68;11.13
55068;BME280;40965;52.368;9.712;2023-06-04T12:22:14;101440.31;;;39.74;10.75
55068;BME280;40965;52.368;9.712;2023-06-04T12:24:49;101446.22;;;40.38;10.07
55068;BME280;40965;52.368;9.712;2023-06-04T12:27:19;101444.84;;;40.27;9.87
55068;BME280;40965;52.368;9.712;2023-06-04T12:29:59;101447.56;;;38.03;10.42
55068;BME280;40965;52.368;9.712;2023-06-04T12:32:26;101443.06;;;37.54;10.55
55068;BME280;40965;52.368;9.712;2023-06-04T12:34:53;101448.84;;;36.42;11.15
55068;BME280;40965;52.368;9.712;2023-06-04T12:37:22;101437.63;;;36.53;11.61
55068;BME280;40965;52.368;9.712;2023-06-04T12:39:50;101435.75;;;38.11;10.28
55068;BME280;40965;52.368;9.712;2023-06-04T12:42:18;101441.84;;;37.48;10.83
55068;BME280;40965;52.368;9.712;2023-06-04T12:44:45;101433.16;;;38.57;10.53
55068;BME280;40965;52.368;9.712;2023-06-04T12:47:12;101428.66;;;39.19;10.29
55068;BME280;40965;52.368;9.712;2023-06-04T12:49:38;101442.34;;;39.57;9.72
55068;BME280;40965;52.368;9.712;2023-06-04T12:52:05;101436.34;;;38.69;10.28
55068;BME280;40965;52.368;9.712;2023-06-04T12:54:32;101429.72;;;39.33;10.08
55068;BME280;40965;52.368;9.712;2023-06-04T12:56:59;101429.63;;;39.26;10.02
55068;BME280;40965;52.368;9.712;2023-06-04T12:59:26;101438.72;;;38.41;10.80